Aviation Digital Data Service (ADDS)

Output produced by TAFs form (0322 UTC 18 April 2015)
found at http://aviationweather.gov/adds/tafs/
 
KHOB 172327Z 1800/1824 23014G19KT P6SM SCT250 
     FM180100 25006KT P6SM SKC 
     FM181700 23012G19KT P6SM SKC